Time;durP1;ratioP1;P1;durP2;ratioP2;P2;SDS_P1;SDS_P2;PMS_P1;PMS_P2;Temp;Humidity;BMP_temperature;BMP_pressure;BME280_temperature;BME280_humidity;BME280_pressure;Samples;Min_cycle;Max_cycle;Signal;HPM_P1;HPM_P2
2022/01/11 00:00:13;;;;;;;;;;;;;;;-4.12;100.00;102539.97;5071181;28;1266;-72
2022/01/11 00:02:42;;;;;;;;;;;;;;;-4.11;100.00;102547.94;5070356;28;792;-72
2022/01/11 00:05:16;;;;;;;;;;;;;;;-4.05;100.00;102542.69;5070548;28;1006;-73
2022/01/11 00:07:44;;;;;;;;;;;;;;;-4.00;100.00;102542.72;5072388;28;994;-72
2022/01/11 00:10:13;;;;;;;;;;;;;;;-3.96;100.00;102547.16;5070063;28;1373;-73
2022/01/11 00:12:39;;;;;;;;;;;;;;;-3.90;100.00;102546.31;5071551;28;978;-70
2022/01/11 00:15:07;;;;;;;;;;;;;;;-3.85;100.00;102555.22;5071854;28;946;-72
2022/01/11 00:17:34;;;;;;;;;;;;;;;-3.81;100.00;102556.13;5071163;28;1969;-72
2022/01/11 00:20:00;;;;;;;;;;;;;;;-3.84;100.00;102546.38;5071218;28;1399;-70
2022/01/11 00:22:31;;;;;;;;;;;;;;;-3.81;100.00;102550.81;5070145;28;903;-72
2022/01/11 00:24:57;;;;;;;;;;;;;;;-3.83;100.00;102548.16;5071280;28;1016;-70
2022/01/11 00:27:23;;;;;;;;;;;;;;;-3.82;100.00;102547.28;5071317;28;808;-72
2022/01/11 00:29:52;;;;;;;;;;;;;;;-3.77;100.00;102542.00;5069956;28;1308;-70
2022/01/11 00:32:33;;;;;;;;;;;;;;;-3.76;100.00;102541.13;5070120;28;879;-71
2022/01/11 00:35:03;;;;;;;;;;;;;;;-3.80;100.00;102544.66;5069959;28;1002;-70
2022/01/11 00:37:29;;;;;;;;;;;;;;;-3.73;100.00;102549.13;5070371;28;1918;-73
2022/01/11 00:39:56;;;;;;;;;;;;;;;-3.73;100.00;102557.06;5069737;28;1333;-74
2022/01/11 00:42:22;;;;;;;;;;;;;;;-3.76;100.00;102565.03;5069678;28;998;-72
2022/01/11 00:44:49;;;;;;;;;;;;;;;-3.76;100.00;102573.88;5070899;28;962;-73
2022/01/11 00:47:15;;;;;;;;;;;;;;;-3.82;100.00;102580.91;5070631;28;903;-72
2022/01/11 00:49:42;;;;;;;;;;;;;;;-3.84;100.00;102578.22;5069813;28;1309;-72
2022/01/11 00:52:09;;;;;;;;;;;;;;;-3.91;100.00;102582.59;5069956;28;1152;-71
2022/01/11 00:54:36;;;;;;;;;;;;;;;-3.90;100.00;102584.38;5073598;28;871;-72
2022/01/11 00:57:02;;;;;;;;;;;;;;;-3.83;100.00;102582.66;5075647;28;1326;-71
2022/01/11 00:59:28;;;;;;;;;;;;;;;-3.87;100.00;102586.19;5071445;28;1910;-72
2022/01/11 01:01:55;;;;;;;;;;;;;;;-3.88;100.00;102595.88;5069823;28;1005;-72
2022/01/11 01:04:21;;;;;;;;;;;;;;;-3.90;100.00;102588.78;5070128;28;982;-72
2022/01/11 01:06:47;;;;;;;;;;;;;;;-3.89;100.00;102596.78;5071354;28;1029;-72
2022/01/11 01:09:16;;;;;;;;;;;;;;;-3.87;100.00;102592.34;5071655;28;1317;-71
2022/01/11 01:11:47;;;;;;;;;;;;;;;-3.97;100.00;102593.16;5074192;28;930;-72
2022/01/11 01:14:14;;;;;;;;;;;;;;;-3.96;100.00;102599.34;5073958;28;934;-74
2022/01/11 01:16:41;;;;;;;;;;;;;;;-4.00;100.00;102614.34;5073227;28;1069;-72
2022/01/11 01:19:12;;;;;;;;;;;;;;;-4.01;100.00;102601.94;5073124;28;1922;-72
2022/01/11 01:21:38;;;;;;;;;;;;;;;-4.03;100.00;102601.94;5074682;28;1036;-72
2022/01/11 01:24:05;;;;;;;;;;;;;;;-4.06;100.00;102607.22;5073318;28;1002;-72
2022/01/11 01:26:33;;;;;;;;;;;;;;;-4.10;100.00;102609.81;5073221;28;1045;-70
2022/01/11 01:29:00;;;;;;;;;;;;;;;-4.16;100.00;102605.34;5073160;28;1330;-72
2022/01/11 01:31:26;;;;;;;;;;;;;;;-4.13;100.00;102615.09;5073116;28;946;-71
2022/01/11 01:33:53;;;;;;;;;;;;;;;-4.13;100.00;102612.47;5074075;28;812;-71
2022/01/11 01:36:19;;;;;;;;;;;;;;;-4.11;100.00;102626.63;5072572;28;1010;-71
2022/01/11 01:38:45;;;;;;;;;;;;;;;-4.13;100.00;102625.72;5072730;28;1914;-73
2022/01/11 01:41:16;;;;;;;;;;;;;;;-4.14;100.00;102623.94;5074377;28;999;-72
2022/01/11 01:43:46;;;;;;;;;;;;;;;-4.13;100.00;102623.06;5073364;28;729;-72
2022/01/11 01:46:12;;;;;;;;;;;;;;;-4.08;100.00;102631.97;5072655;28;986;-72
2022/01/11 01:48:38;;;;;;;;;;;;;;;-4.05;100.00;102640.84;5072921;28;836;-72
2022/01/11 01:51:06;;;;;;;;;;;;;;;-3.98;100.00;102643.56;5072754;28;1338;-73
2022/01/11 01:53:32;;;;;;;;;;;;;;;-3.85;100.00;102633.94;5073174;28;915;-69
2022/01/11 01:55:58;;;;;;;;;;;;;;;-3.87;100.00;102642.78;5073569;28;970;-71
2022/01/11 01:58:26;;;;;;;;;;;;;;;-3.82;100.00;102637.53;5072591;28;1971;-71
2022/01/11 02:01:02;;;;;;;;;;;;;;;-3.82;100.00;102633.97;5055799;28;1383;-73
2022/01/11 02:03:29;;;;;;;;;;;;;;;-3.82;100.00;102636.63;5074224;28;788;-72
2022/01/11 02:05:56;;;;;;;;;;;;;;;-3.97;100.00;102640.91;5072271;28;1010;-72
2022/01/11 02:08:23;;;;;;;;;;;;;;;-4.00;100.00;102642.66;5072547;28;970;-72
2022/01/11 02:10:50;;;;;;;;;;;;;;;-4.00;100.00;102642.66;5072380;28;1363;-73
2022/01/11 02:13:17;;;;;;;;;;;;;;;-4.03;100.00;102643.53;5072513;28;840;-70
2022/01/11 02:15:43;;;;;;;;;;;;;;;-4.03;100.00;102646.19;5071993;28;781;-71
2022/01/11 02:18:12;;;;;;;;;;;;;;;-4.04;100.00;102645.25;5072252;28;1980;-72
2022/01/11 02:20:40;;;;;;;;;;;;;;;-3.97;100.00;102645.34;5071768;28;1294;-70
2022/01/11 02:23:07;;;;;;;;;;;;;;;-4.01;100.00;102646.19;5071767;28;1026;-72
2022/01/11 02:25:34;;;;;;;;;;;;;;;-4.05;100.00;102642.59;5072671;28;1002;-73
2022/01/11 02:28:01;;;;;;;;;;;;;;;-4.00;100.00;102647.97;5071955;28;1073;-72
2022/01/11 02:30:32;;;;;;;;;;;;;;;-3.91;100.00;102656.03;5055197;28;1357;-71
2022/01/11 02:32:58;;;;;;;;;;;;;;;-3.94;100.00;102659.53;5072149;28;1017;-73
2022/01/11 02:35:26;;;;;;;;;;;;;;;-3.92;100.00;102655.13;5072054;28;870;-71
2022/01/11 02:37:55;;;;;;;;;;;;;;;-3.95;100.00;102659.53;5071671;28;1979;-71
2022/01/11 02:40:21;;;;;;;;;;;;;;;-3.96;100.00;102668.34;5071945;28;1426;-71
2022/01/11 02:42:47;;;;;;;;;;;;;;;-3.96;100.00;102663.03;5071797;28;843;-71
2022/01/11 02:45:14;;;;;;;;;;;;;;;-3.99;100.00;102666.56;5071720;28;1120;-72
2022/01/11 02:47:41;;;;;;;;;;;;;;;-3.96;100.00;102678.97;5071149;28;768;-70
2022/01/11 02:50:09;;;;;;;;;;;;;;;-3.98;100.00;102672.75;5072838;28;1314;-70
2022/01/11 02:52:41;;;;;;;;;;;;;;;-3.99;100.00;102676.28;5071620;28;1175;-70
2022/01/11 02:55:12;;;;;;;;;;;;;;;-4.00;100.00;102677.16;5071841;28;1037;-72
2022/01/11 02:57:40;;;;;;;;;;;;;;;-4.04;100.00;102666.50;5071379;28;875;-71
2022/01/11 03:00:14;;;;;;;;;;;;;;;-4.01;100.00;102665.63;5065140;22;2090;-77
2022/01/11 03:02:41;;;;;;;;;;;;;;;-3.96;100.00;102676.31;5017352;28;1141;-79
2022/01/11 03:05:08;;;;;;;;;;;;;;;-4.01;100.00;102676.25;5029224;28;1139;-79
2022/01/11 03:07:34;;;;;;;;;;;;;;;-3.99;100.00;102674.50;5021512;28;1051;-78
2022/01/11 03:10:05;;;;;;;;;;;;;;;-3.99;100.00;102677.16;5017478;28;1349;-79
2022/01/11 03:12:43;;;;;;;;;;;;;;;-4.06;100.00;102680.66;5032676;28;1473;-77
2022/01/11 03:15:09;;;;;;;;;;;;;;;-4.07;100.00;102685.03;5032978;28;1496;-78
2022/01/11 03:17:36;;;;;;;;;;;;;;;-4.09;100.00;102688.53;5032706;28;994;-79
2022/01/11 03:20:03;;;;;;;;;;;;;;;-4.06;100.00;102685.94;5033308;28;1910;-77
2022/01/11 03:22:29;;;;;;;;;;;;;;;-3.99;100.00;102682.47;5033702;28;1039;-77
2022/01/11 03:24:56;;;;;;;;;;;;;;;-4.05;100.00;102679.75;5033900;28;773;-77
2022/01/11 03:27:23;;;;;;;;;;;;;;;-3.99;100.00;102682.47;5032415;28;1245;-78
2022/01/11 03:29:52;;;;;;;;;;;;;;;-3.95;100.00;102680.75;5033369;28;1305;-78
2022/01/11 03:32:19;;;;;;;;;;;;;;;-3.93;100.00;102686.94;5039344;28;935;-79
2022/01/11 03:34:46;;;;;;;;;;;;;;;-3.94;100.00;102691.38;5042298;28;841;-77
2022/01/11 03:37:14;;;;;;;;;;;;;;;-4.00;100.00;102693.06;5037011;28;1149;-78
2022/01/11 03:39:41;;;;;;;;;;;;;;;-4.02;100.00;102693.06;5036568;28;1992;-78
2022/01/11 03:42:08;;;;;;;;;;;;;;;-4.07;100.00;102686.81;5047650;28;1367;-80
2022/01/11 03:44:34;;;;;;;;;;;;;;;-4.08;100.00;102696.50;5041527;28;1123;-80
2022/01/11 03:47:04;;;;;;;;;;;;;;;-4.06;100.00;102683.28;5031693;28;927;-77
2022/01/11 03:49:30;;;;;;;;;;;;;;;-4.04;100.00;102698.31;5032372;28;1401;-79
2022/01/11 03:51:57;;;;;;;;;;;;;;;-3.96;100.00;102705.50;5032244;28;1753;-77
2022/01/11 03:54:26;;;;;;;;;;;;;;;-3.94;100.00;102712.59;5017212;28;1292;-77
2022/01/11 03:57:22;;;;;;;;;;;;;;;-3.89;100.00;102715.28;5034008;28;1453;-79
2022/01/11 03:59:48;;;;;;;;;;;;;;;-3.92;100.00;102709.97;5038045;28;1918;-76
2022/01/11 04:02:16;;;;;;;;;;;;;;;-3.96;100.00;102709.03;5039235;28;1015;-76
2022/01/11 04:04:43;;;;;;;;;;;;;;;-3.93;100.00;102716.13;5039692;28;1071;-78
2022/01/11 04:07:10;;;;;;;;;;;;;;;-3.87;100.00;102710.91;5040396;28;1026;-78
2022/01/11 04:09:37;;;;;;;;;;;;;;;-3.87;100.00;102713.56;5040087;28;909;-77
2022/01/11 04:12:03;;;;;;;;;;;;;;;-3.89;100.00;102713.56;5023344;28;1438;-77
2022/01/11 04:14:31;;;;;;;;;;;;;;;-3.88;100.00;102717.97;5040567;28;928;-77
2022/01/11 04:16:57;;;;;;;;;;;;;;;-3.85;100.00;102721.53;5038816;28;936;-76
2022/01/11 04:19:25;;;;;;;;;;;;;;;-3.83;100.00;102719.81;5033002;28;1972;-77
2022/01/11 04:21:52;;;;;;;;;;;;;;;-3.85;100.00;102718.88;5030504;28;1426;-78
2022/01/11 04:24:18;;;;;;;;;;;;;;;-3.80;100.00;102717.16;5034255;28;983;-77
2022/01/11 04:26:45;;;;;;;;;;;;;;;-3.79;100.00;102717.19;5038807;28;1039;-79
2022/01/11 04:29:11;;;;;;;;;;;;;;;-3.80;100.00;102720.69;5032430;28;1117;-78
2022/01/11 04:31:37;;;;;;;;;;;;;;;-3.78;100.00;102713.66;5031615;28;1324;-77
2022/01/11 04:34:09;;;;;;;;;;;;;;;-3.77;100.00;102711.88;5032053;28;935;-78
2022/01/11 04:36:37;;;;;;;;;;;;;;;-3.72;100.00;102715.47;5031326;28;844;-76
2022/01/11 04:39:06;;;;;;;;;;;;;;;-3.68;100.00;102711.97;5031772;28;1979;-79
2022/01/11 04:41:33;;;;;;;;;;;;;;;-3.68;100.00;102717.28;5032490;28;1388;-77
2022/01/11 04:43:59;;;;;;;;;;;;;;;-3.70;100.00;102717.28;5031509;28;963;-76
2022/01/11 04:46:26;;;;;;;;;;;;;;;-3.74;100.00;102726.09;5033066;28;982;-76
2022/01/11 04:48:55;;;;;;;;;;;;;;;-3.77;100.00;102720.75;5031633;28;1253;-77
2022/01/11 04:51:24;;;;;;;;;;;;;;;-3.73;100.00;102713.69;5032028;28;1434;-77
2022/01/11 04:53:52;;;;;;;;;;;;;;;-3.71;100.00;102711.97;5031367;28;991;-78
2022/01/11 04:56:21;;;;;;;;;;;;;;;-3.68;100.00;102722.59;5030485;28;983;-77
2022/01/11 04:58:47;;;;;;;;;;;;;;;-3.69;100.00;102720.81;5029411;28;1911;-75
2022/01/11 05:01:14;;;;;;;;;;;;;;;-3.64;100.00;102729.72;5029392;28;1368;-77
2022/01/11 05:03:42;;;;;;;;;;;;;;;-3.66;100.00;102726.16;5029565;28;1146;-77
2022/01/11 05:06:09;;;;;;;;;;;;;;;-3.67;100.00;102728.78;5030204;28;820;-77
2022/01/11 05:08:36;;;;;;;;;;;;;;;-3.66;100.00;102731.47;5012839;28;1153;-77
2022/01/11 05:11:07;;;;;;;;;;;;;;;-3.60;100.00;102733.28;5029097;28;1456;-75
2022/01/11 05:13:34;;;;;;;;;;;;;;;-3.66;100.00;102734.13;5030258;28;1043;-78
2022/01/11 05:16:05;;;;;;;;;;;;;;;-3.64;100.00;102734.16;5013074;28;1333;-77
2022/01/11 05:18:31;;;;;;;;;;;;;;;-3.61;100.00;102734.16;5031608;28;1038;-78
2022/01/11 05:20:58;;;;;;;;;;;;;;;-3.61;100.00;102729.72;5030661;28;1985;-77
2022/01/11 05:23:24;;;;;;;;;;;;;;;-3.59;100.00;102743.94;5032923;28;824;-78
2022/01/11 05:25:51;;;;;;;;;;;;;;;-3.57;100.00;102747.50;5031218;28;924;-75
2022/01/11 05:28:19;;;;;;;;;;;;;;;-3.54;100.00;102750.19;5030867;28;966;-79
2022/01/11 05:30:45;;;;;;;;;;;;;;;-3.54;100.00;102746.63;5033754;28;1355;-78
2022/01/11 05:33:11;;;;;;;;;;;;;;;-3.56;100.00;102743.94;5033382;28;766;-76
2022/01/11 05:35:39;;;;;;;;;;;;;;;-3.62;100.00;102746.56;5032584;28;982;-77
2022/01/11 05:38:05;;;;;;;;;;;;;;;-3.60;100.00;102747.44;5028927;28;1861;-75
2022/01/11 05:40:32;;;;;;;;;;;;;;;-3.61;100.00;102742.13;5028333;28;1922;-77
2022/01/11 05:43:06;;;;;;;;;;;;;;;-3.64;100.00;102755.38;5017290;28;1162;-77
2022/01/11 05:45:35;;;;;;;;;;;;;;;-3.60;100.00;102751.88;5028374;28;1167;-76
2022/01/11 05:48:03;;;;;;;;;;;;;;;-3.57;100.00;102754.56;5028224;28;1439;-76
2022/01/11 05:50:32;;;;;;;;;;;;;;;-3.54;100.00;102754.59;5009465;28;1387;-76
2022/01/11 05:52:58;;;;;;;;;;;;;;;-3.55;100.00;102761.66;5014935;28;1604;-79
2022/01/11 05:55:25;;;;;;;;;;;;;;;-3.59;100.00;102762.53;5028772;28;967;-79
2022/01/11 05:57:51;;;;;;;;;;;;;;;-3.60;100.00;102768.69;5033799;28;1526;-75
2022/01/11 06:00:19;;;;;;;;;;;;;;;-3.63;100.00;102773.09;5034920;28;1910;-74
2022/01/11 06:02:52;;;;;;;;;;;;;;;-3.58;100.00;102768.69;5017556;28;1526;-76
2022/01/11 06:05:28;;;;;;;;;;;;;;;-3.56;100.00;102775.81;5016905;28;1494;-75
2022/01/11 06:07:55;;;;;;;;;;;;;;;-3.54;100.00;102765.19;5033443;28;1596;-75
2022/01/11 06:10:21;;;;;;;;;;;;;;;-3.49;100.00;102771.47;5030925;28;1525;-74
2022/01/11 06:12:49;;;;;;;;;;;;;;;-3.53;100.00;102774.97;5028231;28;1143;-73
2022/01/11 06:15:15;;;;;;;;;;;;;;;-3.47;100.00;102779.47;5023486;28;1350;-72
2022/01/11 06:17:42;;;;;;;;;;;;;;;-3.48;100.00;102775.91;5023220;28;1228;-74
2022/01/11 06:20:12;;;;;;;;;;;;;;;-3.51;100.00;102778.53;5029384;28;1981;-73
2022/01/11 06:22:39;;;;;;;;;;;;;;;-3.49;100.00;102781.19;5030752;28;1581;-76
2022/01/11 06:25:07;;;;;;;;;;;;;;;-3.41;100.00;102787.47;5031154;28;1467;-74
2022/01/11 06:27:34;;;;;;;;;;;;;;;-3.44;100.00;102791.00;5030160;28;1344;-75
2022/01/11 06:30:01;;;;;;;;;;;;;;;-3.50;100.00;102787.38;5013870;28;1527;-72
2022/01/11 06:32:29;;;;;;;;;;;;;;;-3.51;100.00;102797.13;5014087;28;1521;-76
2022/01/11 06:34:56;;;;;;;;;;;;;;;-3.52;100.00;102803.31;5022885;28;1343;-76
2022/01/11 06:37:24;;;;;;;;;;;;;;;-3.54;100.00;102797.97;5015219;28;1486;-75
2022/01/11 06:39:52;;;;;;;;;;;;;;;-3.53;100.00;102799.78;5026168;28;1922;-72
2022/01/11 06:42:18;;;;;;;;;;;;;;;-3.60;100.00;102803.22;5014285;28;1514;-75
2022/01/11 06:44:45;;;;;;;;;;;;;;;-3.65;100.00;102807.56;5033513;28;1486;-74
2022/01/11 06:47:12;;;;;;;;;;;;;;;-3.62;100.00;102804.06;5032988;28;1554;-74
2022/01/11 06:49:39;;;;;;;;;;;;;;;-3.65;100.00;102807.56;5034676;28;1002;-76
2022/01/11 06:52:07;;;;;;;;;;;;;;;-3.60;100.00;102805.88;5033964;28;1336;-73
2022/01/11 06:54:40;;;;;;;;;;;;;;;-3.57;100.00;102808.56;5015229;28;979;-76
2022/01/11 06:57:07;;;;;;;;;;;;;;;-3.57;100.00;102808.56;5031644;28;860;-75
2022/01/11 06:59:35;;;;;;;;;;;;;;;-3.63;100.00;102797.88;5031757;28;1887;-75
2022/01/11 07:02:04;;;;;;;;;;;;;;;-3.70;100.00;102804.88;5031439;28;1310;-76
2022/01/11 07:04:44;;;;;;;;;;;;;;;-3.66;100.00;102805.81;5031940;28;907;-74
2022/01/11 07:07:11;;;;;;;;;;;;;;;-3.63;100.00;102805.84;5032392;28;971;-73
2022/01/11 07:09:38;;;;;;;;;;;;;;;-3.66;100.00;102805.81;5031526;28;1009;-76
2022/01/11 07:12:06;;;;;;;;;;;;;;;-3.73;100.00;102812.81;5032830;28;1419;-74
2022/01/11 07:14:34;;;;;;;;;;;;;;;-3.71;100.00;102819.03;5031662;28;986;-75
2022/01/11 07:17:01;;;;;;;;;;;;;;;-3.70;100.00;102833.22;5031516;28;1515;-75
2022/01/11 07:19:29;;;;;;;;;;;;;;;-3.79;100.00;102833.97;5031548;28;1981;-76
2022/01/11 07:21:58;;;;;;;;;;;;;;;-3.81;100.00;102832.16;5031953;28;1329;-76
2022/01/11 07:24:27;;;;;;;;;;;;;;;-3.91;100.00;102832.06;5031374;28;998;-76
2022/01/11 07:26:56;;;;;;;;;;;;;;;-3.83;100.00;102837.47;5030789;28;1074;-76
2022/01/11 07:29:24;;;;;;;;;;;;;;;-3.72;100.00;102848.22;5036371;28;1051;-79
2022/01/11 07:31:51;;;;;;;;;;;;;;;-3.68;100.00;102844.72;5034981;28;1459;-75
2022/01/11 07:34:20;;;;;;;;;;;;;;;-3.66;100.00;102843.00;5034301;28;1656;-78
2022/01/11 07:36:48;;;;;;;;;;;;;;;-3.75;100.00;102837.56;5032343;28;1542;-74
2022/01/11 07:39:14;;;;;;;;;;;;;;;-3.89;100.00;102840.94;5031626;28;992;-77
2022/01/11 07:41:41;;;;;;;;;;;;;;;-3.87;100.00;102851.56;5034874;28;1983;-77
2022/01/11 07:44:18;;;;;;;;;;;;;;;-3.87;100.00;102854.22;5043808;28;1047;-79
2022/01/11 07:46:46;;;;;;;;;;;;;;;-3.80;100.00;102861.38;5038557;28;1534;-75
2022/01/11 07:49:20;;;;;;;;;;;;;;;-3.73;100.00;102862.34;5031896;28;1562;-74
2022/01/11 07:51:46;;;;;;;;;;;;;;;-3.67;100.00;102862.44;5032065;28;1514;-75
2022/01/11 07:54:13;;;;;;;;;;;;;;;-3.64;100.00;102861.59;5032749;28;915;-73
2022/01/11 07:56:39;;;;;;;;;;;;;;;-3.71;100.00;102868.59;5031925;28;1612;-75
2022/01/11 07:59:06;;;;;;;;;;;;;;;-3.67;100.00;102878.38;5032629;28;1172;-75
2022/01/11 08:01:38;;;;;;;;;;;;;;;-3.76;100.00;102872.94;5015595;28;1999;-75
2022/01/11 08:04:04;;;;;;;;;;;;;;;-3.72;100.00;102877.41;5032220;28;1503;-74
2022/01/11 08:06:36;;;;;;;;;;;;;;;-3.66;100.00;102885.47;5033686;28;1478;-73
2022/01/11 08:09:14;;;;;;;;;;;;;;;-3.63;100.00;102880.19;5032709;28;990;-73
2022/01/11 08:11:41;;;;;;;;;;;;;;;-3.59;100.00;102881.13;5032337;28;1585;-74
2022/01/11 08:14:07;;;;;;;;;;;;;;;-3.65;100.00;102881.03;5031008;28;1650;-73
2022/01/11 08:16:39;;;;;;;;;;;;;;;-3.58;100.00;102888.19;5031852;28;1745;-75
2022/01/11 08:19:05;;;;;;;;;;;;;;;-3.56;100.00;102881.16;5032062;28;863;-74
2022/01/11 08:21:32;;;;;;;;;;;;;;;-3.53;100.00;102882.09;5031199;28;1968;-74
2022/01/11 08:23:58;;;;;;;;;;;;;;;-3.49;100.00;102892.72;5034648;28;1517;-75
2022/01/11 08:26:26;;;;;;;;;;;;;;;-3.45;100.00;102889.25;5013173;28;1523;-75
2022/01/11 08:28:52;;;;;;;;;;;;;;;-3.59;100.00;102886.44;5033313;28;1425;-75
2022/01/11 08:31:20;;;;;;;;;;;;;;;-3.54;100.00;102890.00;5038734;28;1622;-74
2022/01/11 08:33:52;;;;;;;;;;;;;;;-3.52;100.00;102893.59;5022229;28;1507;-76
2022/01/11 08:36:19;;;;;;;;;;;;;;;-3.47;100.00;102883.91;5036743;28;1474;-75
2022/01/11 08:38:46;;;;;;;;;;;;;;;-3.48;100.00;102891.88;5036752;28;1557;-75
2022/01/11 08:41:13;;;;;;;;;;;;;;;-3.53;100.00;102881.19;5052368;28;1956;-74
2022/01/11 08:43:40;;;;;;;;;;;;;;;-3.51;100.00;102889.16;5037001;28;1597;-74
2022/01/11 08:46:07;;;;;;;;;;;;;;;-3.48;100.00;102894.53;5038483;28;1493;-75
2022/01/11 08:48:47;;;;;;;;;;;;;;;-3.38;100.00;102901.69;5021506;28;1158;-74
2022/01/11 08:51:15;;;;;;;;;;;;;;;-3.33;100.00;102904.44;5037781;28;1495;-76
2022/01/11 08:53:42;;;;;;;;;;;;;;;-3.29;100.00;102907.13;5021497;28;1518;-75
2022/01/11 08:56:17;;;;;;;;;;;;;;;-3.22;100.00;102911.66;5037409;28;1363;-75
2022/01/11 08:58:43;;;;;;;;;;;;;;;-3.27;100.00;102912.47;5038399;28;841;-76
2022/01/11 09:01:13;;;;;;;;;;;;;;;-3.35;100.00;102909.72;5037491;28;1914;-78
2022/01/11 09:03:40;;;;;;;;;;;;;;;-3.39;100.00;102906.13;5038890;28;1359;-75
2022/01/11 09:06:08;;;;;;;;;;;;;;;-3.31;100.00;102900.00;5033718;28;1518;-75
2022/01/11 09:08:37;;;;;;;;;;;;;;;-3.33;100.00;102899.13;5033064;28;1561;-76
2022/01/11 09:11:04;;;;;;;;;;;;;;;-3.27;100.00;102905.41;5015315;28;1584;-76
2022/01/11 09:13:31;;;;;;;;;;;;;;;-3.27;100.00;102899.19;5035394;28;1526;-75
2022/01/11 09:15:57;;;;;;;;;;;;;;;-3.26;100.00;102893.91;5033720;28;1584;-75
2022/01/11 09:18:24;;;;;;;;;;;;;;;-3.29;100.00;102896.50;5034252;28;1636;-77
2022/01/11 09:20:51;;;;;;;;;;;;;;;-3.22;100.00;102901.03;5035442;28;1966;-75
2022/01/11 09:23:17;;;;;;;;;;;;;;;-3.25;100.00;102903.63;5036626;28;1580;-78
2022/01/11 09:25:47;;;;;;;;;;;;;;;-3.30;100.00;102900.06;5016062;28;1822;-77
2022/01/11 09:28:16;;;;;;;;;;;;;;;-3.40;100.00;102898.16;5027925;28;1374;-76
2022/01/11 09:30:44;;;;;;;;;;;;;;;-3.42;100.00;102900.81;5039371;28;1325;-79
2022/01/11 09:33:14;;;;;;;;;;;;;;;-3.29;100.00;102898.28;5027899;28;1471;-81
2022/01/11 09:35:42;;;;;;;;;;;;;;;-3.23;100.00;102899.25;5038777;28;1371;-77
2022/01/11 09:38:22;;;;;;;;;;;;;;;-3.11;100.00;102900.25;5012541;28;1333;-76
2022/01/11 09:40:53;;;;;;;;;;;;;;;-3.06;100.00;102898.50;5007416;28;1989;-78
2022/01/11 09:43:22;;;;;;;;;;;;;;;-2.96;100.00;102894.22;5022562;28;1077;-76
2022/01/11 09:45:49;;;;;;;;;;;;;;;-2.99;100.00;102886.19;5039949;28;1303;-76
2022/01/11 09:48:18;;;;;;;;;;;;;;;-2.99;100.00;102892.41;5025417;28;1408;-75
2022/01/11 09:50:46;;;;;;;;;;;;;;;-2.84;100.00;102882.81;5040926;28;1310;-80
2022/01/11 09:53:15;;;;;;;;;;;;;;;-2.90;100.00;102886.28;5039551;28;885;-79
2022/01/11 09:55:45;;;;;;;;;;;;;;;-2.95;100.00;102880.91;5021396;28;1460;-74
2022/01/11 09:58:14;;;;;;;;;;;;;;;-2.84;100.00;102889.00;5038333;28;1339;-78
2022/01/11 10:00:50;;;;;;;;;;;;;;;-2.81;100.00;102889.00;5033839;28;1985;-76
2022/01/11 10:03:58;;;;;;;;;;;;;;;-2.63;100.00;102890.97;5023977;28;1667;-76
2022/01/11 10:06:29;;;;;;;;;;;;;;;-2.54;100.00;102888.38;5032508;28;1479;-74
2022/01/11 10:09:12;;;;;;;;;;;;;;;-2.48;100.00;102878.66;5004574;28;1492;-76
2022/01/11 10:11:40;;;;;;;;;;;;;;;-2.42;100.00;102879.59;5003114;28;1385;-76
2022/01/11 10:14:18;;;;;;;;;;;;;;;-2.29;100.00;102883.22;5015997;28;999;-75
2022/01/11 10:16:44;;;;;;;;;;;;;;;-2.27;100.00;102877.91;4998251;28;1491;-74
2022/01/11 10:19:19;;;;;;;;;;;;;;;-2.06;100.00;102886.06;5014935;28;1112;-75
2022/01/11 10:21:47;;;;;;;;;;;;;;;-1.39;100.00;102887.25;4998171;28;1914;-74
2022/01/11 10:24:27;;;;;;;;;;;;;;;-1.11;100.00;102874.00;4997535;28;908;-73
2022/01/11 10:26:57;;;;;;;;;;;;;;;-1.26;100.00;102880.16;4997267;28;877;-74
2022/01/11 10:29:28;;;;;;;;;;;;;;;-1.63;100.00;102888.03;5013567;28;998;-75
2022/01/11 10:31:58;;;;;;;;;;;;;;;-1.53;100.00;102881.84;5013695;28;1443;-73
2022/01/11 10:34:26;;;;;;;;;;;;;;;-1.53;100.00;102880.97;5020402;28;1059;-76
2022/01/11 10:36:52;;;;;;;;;;;;;;;-1.48;100.00;102872.97;5019576;28;899;-75
2022/01/11 10:39:24;;;;;;;;;;;;;;;-1.45;100.00;102873.88;5019521;28;1045;-75
2022/01/11 10:41:50;;;;;;;;;;;;;;;-1.32;100.00;102874.81;5028734;28;1983;-76
2022/01/11 10:44:41;;;;;;;;;;;;;;;-1.53;100.00;102884.50;5032995;28;1665;-75
2022/01/11 10:47:09;;;;;;;;;;;;;;;-1.62;100.00;102880.94;5031880;28;1340;-75
2022/01/11 10:49:36;;;;;;;;;;;;;;;-1.56;100.00;102887.16;5031353;28;1533;-75
2022/01/11 10:52:15;;;;;;;;;;;;;;;-1.66;100.00;102877.34;5034649;28;1553;-76
2022/01/11 10:54:42;;;;;;;;;;;;;;;-1.45;100.00;102884.53;5016748;28;967;-76
2022/01/11 10:57:14;;;;;;;;;;;;;;;-1.27;100.00;102881.06;5031062;28;1498;-74
2022/01/11 10:59:40;;;;;;;;;;;;;;;-0.94;100.00;102868.66;5031241;28;1407;-75
2022/01/11 11:02:11;;;;;;;;;;;;;;;-0.80;100.00;102866.03;5014102;28;2079;-74
2022/01/11 11:04:38;;;;;;;;;;;;;;;-0.88;100.00;102874.00;5015487;28;1518;-75
2022/01/11 11:07:13;;;;;;;;;;;;;;;-1.06;100.00;102868.66;5016935;28;991;-75
2022/01/11 11:09:44;;;;;;;;;;;;;;;-1.23;100.00;102866.84;5006378;28;1507;-74
2022/01/11 11:12:14;;;;;;;;;;;;;;;-1.16;100.00;102869.50;5035898;28;1481;-78
2022/01/11 11:14:57;;;;;;;;;;;;;;;-1.06;100.00;102873.97;5037069;28;2189;-79
2022/01/11 11:17:30;;;;;;;;;;;;;;;-0.91;100.00;102870.44;5036284;28;1537;-77
2022/01/11 11:20:00;;;;;;;;;;;;;;;-0.80;100.00;102867.78;5035223;28;1601;-77
2022/01/11 11:22:27;;;;;;;;;;;;;;;-0.91;100.00;102863.34;5017992;28;1894;-77
2022/01/11 11:24:54;;;;;;;;;;;;;;;-0.90;100.00;102865.09;5034640;28;1513;-77
2022/01/11 11:27:22;;;;;;;;;;;;;;;-0.76;100.00;102869.56;5033000;28;1477;-77
2022/01/11 11:29:48;;;;;;;;;;;;;;;-0.71;100.00;102866.03;5015035;28;1531;-77
2022/01/11 11:32:16;;;;;;;;;;;;;;;-0.60;100.00;102868.69;5034557;28;1347;-76
2022/01/11 11:34:44;;;;;;;;;;;;;;;-0.55;100.00;102863.34;5015244;28;1506;-77
2022/01/11 11:37:14;;;;;;;;;;;;;;;-0.31;100.00;102872.22;5031467;28;1691;-77
2022/01/11 11:39:41;;;;;;;;;;;;;;;-0.24;100.00;102857.94;5029557;28;1746;-77
2022/01/11 11:42:09;;;;;;;;;;;;;;;-0.39;100.00;102861.53;5014107;28;1988;-77
2022/01/11 11:44:37;;;;;;;;;;;;;;;-0.30;100.00;102864.19;5031829;28;1353;-77
2022/01/11 11:47:05;;;;;;;;;;;;;;;-0.49;100.00;102860.69;5031767;28;1082;-77
2022/01/11 11:49:42;;;;;;;;;;;;;;;-0.39;100.00;102859.78;5034039;28;1501;-77
2022/01/11 11:52:18;;;;;;;;;;;;;;;-0.15;100.00;102857.94;5032943;28;1383;-76
2022/01/11 11:54:48;;;;;;;;;;;;;;;0.14;100.00;102852.50;5034746;28;1445;-76
2022/01/11 11:57:15;;;;;;;;;;;;;;;0.35;100.00;102857.78;5032801;28;1106;-76
2022/01/11 11:59:43;;;;;;;;;;;;;;;0.55;100.00;102855.00;5038087;28;1409;-76
2022/01/11 12:02:10;;;;;;;;;;;;;;;0.57;100.00;102854.09;5038078;28;1977;-76
2022/01/11 12:05:01;;;;;;;;;;;;;;;0.64;100.00;102847.84;5019232;28;1609;-77
2022/01/11 12:07:31;;;;;;;;;;;;;;;0.54;100.00;102850.56;5025637;28;1634;-76
2022/01/11 12:09:58;;;;;;;;;;;;;;;0.64;100.00;102844.25;5033353;28;1566;-76
2022/01/11 12:12:44;;;;;;;;;;;;;;;0.58;100.00;102844.31;5034120;28;1675;-77
2022/01/11 12:15:31;;;;;;;;;;;;;;;0.63;100.00;102847.84;5032703;28;1063;-76
2022/01/11 12:18:14;;;;;;;;;;;;;;;0.55;100.00;102853.22;5032956;28;1497;-76
2022/01/11 12:20:41;;;;;;;;;;;;;;;0.54;100.00;102846.09;5034025;28;1584;-76
2022/01/11 12:23:09;;;;;;;;;;;;;;;0.20;100.00;102853.38;5031592;28;1967;-77
2022/01/11 12:25:42;;;;;;;;;;;;;;;0.26;100.00;102858.72;5034683;28;1453;-77
2022/01/11 12:28:14;;;;;;;;;;;;;;;0.18;100.00;102865.88;5033018;28;1505;-75
2022/01/11 12:30:40;;;;;;;;;;;;;;;0.34;100.00;102859.56;5034943;28;1412;-76
2022/01/11 12:33:08;;;;;;;;;;;;;;;0.44;100.00;102857.72;5033672;28;1493;-76
2022/01/11 12:35:50;;;;;;;;;;;;;;;0.37;100.00;102862.22;5014143;28;1166;-78
2022/01/11 12:38:17;;;;;;;;;;;;;;;0.11;100.00;102863.22;5016289;28;1557;-77
2022/01/11 12:40:44;;;;;;;;;;;;;;;0.16;100.00;102850.72;5033888;28;1435;-77
2022/01/11 12:43:17;;;;;;;;;;;;;;;0.38;100.00;102853.31;5039441;28;1899;-77
2022/01/11 12:46:04;;;;;;;;;;;;;;;0.46;100.00;102851.47;5016217;28;1500;-77
2022/01/11 12:48:50;;;;;;;;;;;;;;;0.40;100.00;102840.84;5034866;28;1340;-77